sensor_id;sensor_type;location;lat;lon;timestamp;P1;durP1;ratioP1;P2;durP2;ratioP2
63394;SDS011;49531;-34.520;150.798;2023-03-01T00:01:29;3.78;;;2.63;;
63394;SDS011;49531;-34.520;150.798;2023-03-01T00:03:58;3.15;;;2.42;;
63394;SDS011;49531;-34.520;150.798;2023-03-01T00:06:25;2.80;;;2.50;;
63394;SDS011;49531;-34.520;150.798;2023-03-01T00:08:53;3.30;;;2.70;;
63394;SDS011;49531;-34.520;150.798;2023-03-01T00:11:25;3.80;;;2.53;;
63394;SDS011;49531;-34.520;150.798;2023-03-01T00:13:54;3.58;;;2.30;;
63394;SDS011;49531;-34.520;150.798;2023-03-01T00:16:23;3.15;;;2.30;;
63394;SDS011;49531;-34.520;150.798;2023-03-01T00:18:53;3.03;;;2.20;;
63394;SDS011;49531;-34.520;150.798;2023-03-01T00:21:21;2.55;;;2.00;;
63394;SDS011;49531;-34.520;150.798;2023-03-01T00:23:49;3.35;;;2.00;;
63394;SDS011;49531;-34.520;150.798;2023-03-01T00:26:17;2.30;;;2.00;;
63394;SDS011;49531;-34.520;150.798;2023-03-01T00:28:46;1.85;;;1.73;;
63394;SDS011;49531;-34.520;150.798;2023-03-01T00:31:15;2.42;;;1.60;;
63394;SDS011;49531;-34.520;150.798;2023-03-01T00:33:43;1.60;;;1.50;;
63394;SDS011;49531;-34.520;150.798;2023-03-01T00:36:12;1.98;;;1.60;;
63394;SDS011;49531;-34.520;150.798;2023-03-01T00:38:42;3.60;;;1.40;;
63394;SDS011;49531;-34.520;150.798;2023-03-01T00:41:12;2.05;;;1.50;;
63394;SDS011;49531;-34.520;150.798;2023-03-01T00:43:41;1.63;;;1.52;;
63394;SDS011;49531;-34.520;150.798;2023-03-01T00:46:09;2.83;;;1.40;;
63394;SDS011;49531;-34.520;150.798;2023-03-01T00:48:39;2.30;;;1.40;;
63394;SDS011;49531;-34.520;150.798;2023-03-01T00:51:08;4.50;;;1.35;;
63394;SDS011;49531;-34.520;150.798;2023-03-01T00:53:37;2.05;;;1.35;;
63394;SDS011;49531;-34.520;150.798;2023-03-01T00:56:06;1.20;;;1.20;;
63394;SDS011;49531;-34.520;150.798;2023-03-01T00:58:34;1.40;;;1.30;;
63394;SDS011;49531;-34.520;150.798;2023-03-01T01:01:07;1.65;;;1.30;;
63394;SDS011;49531;-34.520;150.798;2023-03-01T01:03:44;1.77;;;1.10;;
63394;SDS011;49531;-34.520;150.798;2023-03-01T01:06:19;1.52;;;1.25;;
63394;SDS011;49531;-34.520;150.798;2023-03-01T01:08:48;1.38;;;1.20;;
63394;SDS011;49531;-34.520;150.798;2023-03-01T01:11:17;2.38;;;1.20;;
63394;SDS011;49531;-34.520;150.798;2023-03-01T01:13:46;1.30;;;1.20;;
63394;SDS011;49531;-34.520;150.798;2023-03-01T01:16:14;2.13;;;1.17;;
63394;SDS011;49531;-34.520;150.798;2023-03-01T01:18:43;1.63;;;1.20;;
63394;SDS011;49531;-34.520;150.798;2023-03-01T01:21:12;2.63;;;1.08;;
63394;SDS011;49531;-34.520;150.798;2023-03-01T01:23:41;1.42;;;1.20;;
63394;SDS011;49531;-34.520;150.798;2023-03-01T01:26:11;1.13;;;1.05;;
63394;SDS011;49531;-34.520;150.798;2023-03-01T01:28:42;1.15;;;1.10;;
63394;SDS011;49531;-34.520;150.798;2023-03-01T01:31:09;1.40;;;1.20;;
63394;SDS011;49531;-34.520;150.798;2023-03-01T01:33:36;6.15;;;1.23;;
63394;SDS011;49531;-34.520;150.798;2023-03-01T01:36:04;1.45;;;1.23;;
63394;SDS011;49531;-34.520;150.798;2023-03-01T01:38:32;10.48;;;1.48;;
63394;SDS011;49531;-34.520;150.798;2023-03-01T01:41:00;1.27;;;1.17;;
63394;SDS011;49531;-34.520;150.798;2023-03-01T01:43:29;2.70;;;1.30;;
63394;SDS011;49531;-34.520;150.798;2023-03-01T01:46:05;1.33;;;1.23;;
63394;SDS011;49531;-34.520;150.798;2023-03-01T01:48:54;1.40;;;1.30;;
63394;SDS011;49531;-34.520;150.798;2023-03-01T01:51:25;1.63;;;1.20;;
63394;SDS011;49531;-34.520;150.798;2023-03-01T01:54:06;1.40;;;1.30;;
63394;SDS011;49531;-34.520;150.798;2023-03-01T01:56:42;1.83;;;1.30;;
63394;SDS011;49531;-34.520;150.798;2023-03-01T01:59:14;1.45;;;1.35;;
63394;SDS011;49531;-34.520;150.798;2023-03-01T02:01:42;1.67;;;1.40;;
63394;SDS011;49531;-34.520;150.798;2023-03-01T02:04:09;1.48;;;1.20;;
63394;SDS011;49531;-34.520;150.798;2023-03-01T02:06:38;1.63;;;1.40;;
63394;SDS011;49531;-34.520;150.798;2023-03-01T02:09:12;1.40;;;1.30;;
63394;SDS011;49531;-34.520;150.798;2023-03-01T02:11:41;1.58;;;1.25;;
63394;SDS011;49531;-34.520;150.798;2023-03-01T02:14:10;1.38;;;1.27;;
63394;SDS011;49531;-34.520;150.798;2023-03-01T02:16:37;1.33;;;1.23;;
63394;SDS011;49531;-34.520;150.798;2023-03-01T02:19:05;1.98;;;1.30;;
63394;SDS011;49531;-34.520;150.798;2023-03-01T02:21:42;1.40;;;1.30;;
63394;SDS011;49531;-34.520;150.798;2023-03-01T02:24:38;1.17;;;1.08;;
63394;SDS011;49531;-34.520;150.798;2023-03-01T02:27:14;1.40;;;1.30;;
63394;SDS011;49531;-34.520;150.798;2023-03-01T02:29:43;1.40;;;1.17;;
63394;SDS011;49531;-34.520;150.798;2023-03-01T02:32:10;1.77;;;1.20;;
63394;SDS011;49531;-34.520;150.798;2023-03-01T02:34:40;1.10;;;1.05;;
63394;SDS011;49531;-34.520;150.798;2023-03-01T02:37:09;1.20;;;1.10;;
63394;SDS011;49531;-34.520;150.798;2023-03-01T02:39:41;1.00;;;1.00;;
63394;SDS011;49531;-34.520;150.798;2023-03-01T02:42:13;1.00;;;0.90;;
63394;SDS011;49531;-34.520;150.798;2023-03-01T02:44:43;1.15;;;1.05;;
63394;SDS011;49531;-34.520;150.798;2023-03-01T02:47:10;1.88;;;1.00;;
63394;SDS011;49531;-34.520;150.798;2023-03-01T02:49:37;2.58;;;0.90;;
63394;SDS011;49531;-34.520;150.798;2023-03-01T02:55:02;1.95;;;0.70;;
63394;SDS011;49531;-34.520;150.798;2023-03-01T02:57:36;2.88;;;0.70;;
63394;SDS011;49531;-34.520;150.798;2023-03-01T03:00:07;1.85;;;0.75;;
63394;SDS011;49531;-34.520;150.798;2023-03-01T03:02:45;4.22;;;0.70;;
63394;SDS011;49531;-34.520;150.798;2023-03-01T03:05:16;0.80;;;0.60;;
63394;SDS011;49531;-34.520;150.798;2023-03-01T03:07:46;1.77;;;0.70;;
63394;SDS011;49531;-34.520;150.798;2023-03-01T03:10:15;4.43;;;0.60;;
63394;SDS011;49531;-34.520;150.798;2023-03-01T03:12:49;0.93;;;0.70;;
63394;SDS011;49531;-34.520;150.798;2023-03-01T03:15:18;1.65;;;0.60;;
63394;SDS011;49531;-34.520;150.798;2023-03-01T03:17:46;1.60;;;0.60;;
63394;SDS011;49531;-34.520;150.798;2023-03-01T03:20:16;0.70;;;0.60;;
63394;SDS011;49531;-34.520;150.798;2023-03-01T03:22:46;0.70;;;0.70;;
63394;SDS011;49531;-34.520;150.798;2023-03-01T03:25:16;0.73;;;0.60;;
63394;SDS011;49531;-34.520;150.798;2023-03-01T03:27:45;0.77;;;0.73;;
63394;SDS011;49531;-34.520;150.798;2023-03-01T03:30:15;0.70;;;0.70;;
63394;SDS011;49531;-34.520;150.798;2023-03-01T03:32:45;1.73;;;0.70;;
63394;SDS011;49531;-34.520;150.798;2023-03-01T03:35:20;0.93;;;0.80;;
63394;SDS011;49531;-34.520;150.798;2023-03-01T03:37:50;0.85;;;0.80;;
63394;SDS011;49531;-34.520;150.798;2023-03-01T03:40:29;0.95;;;0.85;;
63394;SDS011;49531;-34.520;150.798;2023-03-01T03:43:01;1.27;;;0.82;;
63394;SDS011;49531;-34.520;150.798;2023-03-01T03:45:30;2.10;;;1.20;;
63394;SDS011;49531;-34.520;150.798;2023-03-01T03:47:59;2.42;;;1.13;;
63394;SDS011;49531;-34.520;150.798;2023-03-01T03:50:26;1.13;;;0.90;;
63394;SDS011;49531;-34.520;150.798;2023-03-01T03:52:53;4.28;;;1.27;;
63394;SDS011;49531;-34.520;150.798;2023-03-01T03:55:20;2.63;;;1.10;;
63394;SDS011;49531;-34.520;150.798;2023-03-01T03:57:48;4.20;;;1.20;;
63394;SDS011;49531;-34.520;150.798;2023-03-01T04:00:20;3.75;;;1.13;;
63394;SDS011;49531;-34.520;150.798;2023-03-01T04:02:49;5.07;;;1.20;;
63394;SDS011;49531;-34.520;150.798;2023-03-01T04:05:18;2.90;;;1.10;;
63394;SDS011;49531;-34.520;150.798;2023-03-01T04:07:45;2.30;;;1.05;;
63394;SDS011;49531;-34.520;150.798;2023-03-01T04:10:13;6.07;;;1.30;;
63394;SDS011;49531;-34.520;150.798;2023-03-01T04:12:42;2.90;;;1.13;;
63394;SDS011;49531;-34.520;150.798;2023-03-01T04:15:10;1.10;;;1.00;;
63394;SDS011;49531;-34.520;150.798;2023-03-01T04:17:40;2.25;;;1.25;;
63394;SDS011;49531;-34.520;150.798;2023-03-01T04:20:08;2.58;;;1.10;;
63394;SDS011;49531;-34.520;150.798;2023-03-01T04:22:40;2.33;;;1.10;;
63394;SDS011;49531;-34.520;150.798;2023-03-01T04:25:07;1.88;;;1.00;;
63394;SDS011;49531;-34.520;150.798;2023-03-01T04:27:35;2.40;;;1.02;;
63394;SDS011;49531;-34.520;150.798;2023-03-01T04:30:03;6.10;;;1.20;;
63394;SDS011;49531;-34.520;150.798;2023-03-01T04:32:31;4.78;;;1.23;;
63394;SDS011;49531;-34.520;150.798;2023-03-01T04:34:58;2.67;;;1.15;;
63394;SDS011;49531;-34.520;150.798;2023-03-01T04:37:25;4.70;;;1.30;;
63394;SDS011;49531;-34.520;150.798;2023-03-01T04:39:53;3.88;;;1.40;;
63394;SDS011;49531;-34.520;150.798;2023-03-01T04:42:20;4.93;;;1.20;;
63394;SDS011;49531;-34.520;150.798;2023-03-01T04:44:47;3.13;;;1.35;;
63394;SDS011;49531;-34.520;150.798;2023-03-01T04:47:17;5.57;;;1.27;;
63394;SDS011;49531;-34.520;150.798;2023-03-01T04:49:44;2.78;;;1.13;;
63394;SDS011;49531;-34.520;150.798;2023-03-01T04:52:11;5.05;;;1.25;;
63394;SDS011;49531;-34.520;150.798;2023-03-01T04:54:38;2.38;;;1.23;;
63394;SDS011;49531;-34.520;150.798;2023-03-01T04:57:05;3.38;;;1.23;;
63394;SDS011;49531;-34.520;150.798;2023-03-01T04:59:32;2.45;;;1.23;;
63394;SDS011;49531;-34.520;150.798;2023-03-01T05:02:01;3.83;;;1.40;;
63394;SDS011;49531;-34.520;150.798;2023-03-01T05:04:28;6.68;;;1.48;;
63394;SDS011;49531;-34.520;150.798;2023-03-01T05:06:57;3.45;;;1.35;;
63394;SDS011;49531;-34.520;150.798;2023-03-01T05:09:26;6.15;;;1.55;;
63394;SDS011;49531;-34.520;150.798;2023-03-01T05:11:53;3.13;;;1.30;;
63394;SDS011;49531;-34.520;150.798;2023-03-01T05:14:21;2.58;;;1.20;;
63394;SDS011;49531;-34.520;150.798;2023-03-01T05:16:48;2.55;;;1.40;;
63394;SDS011;49531;-34.520;150.798;2023-03-01T05:19:15;5.00;;;1.40;;
63394;SDS011;49531;-34.520;150.798;2023-03-01T05:21:48;4.57;;;1.10;;
63394;SDS011;49531;-34.520;150.798;2023-03-01T05:24:27;5.00;;;1.40;;
63394;SDS011;49531;-34.520;150.798;2023-03-01T05:26:56;4.50;;;1.27;;
63394;SDS011;49531;-34.520;150.798;2023-03-01T05:29:24;7.65;;;1.40;;
63394;SDS011;49531;-34.520;150.798;2023-03-01T05:31:53;3.72;;;1.52;;
63394;SDS011;49531;-34.520;150.798;2023-03-01T05:34:24;6.57;;;1.52;;
63394;SDS011;49531;-34.520;150.798;2023-03-01T05:36:52;3.85;;;1.30;;
63394;SDS011;49531;-34.520;150.798;2023-03-01T05:39:21;4.00;;;1.23;;
63394;SDS011;49531;-34.520;150.798;2023-03-01T05:41:53;4.00;;;1.10;;
63394;SDS011;49531;-34.520;150.798;2023-03-01T05:44:22;2.20;;;1.20;;
63394;SDS011;49531;-34.520;150.798;2023-03-01T05:46:49;2.40;;;1.30;;
63394;SDS011;49531;-34.520;150.798;2023-03-01T05:49:17;4.47;;;1.40;;
63394;SDS011;49531;-34.520;150.798;2023-03-01T05:51:48;2.38;;;1.10;;
63394;SDS011;49531;-34.520;150.798;2023-03-01T05:54:17;2.03;;;1.00;;
63394;SDS011;49531;-34.520;150.798;2023-03-01T05:56:45;2.65;;;1.17;;
63394;SDS011;49531;-34.520;150.798;2023-03-01T05:59:12;3.33;;;1.20;;
63394;SDS011;49531;-34.520;150.798;2023-03-01T06:01:42;1.67;;;1.08;;
63394;SDS011;49531;-34.520;150.798;2023-03-01T06:04:09;4.10;;;1.30;;
63394;SDS011;49531;-34.520;150.798;2023-03-01T06:06:36;4.38;;;1.20;;
63394;SDS011;49531;-34.520;150.798;2023-03-01T06:09:04;1.40;;;1.08;;
63394;SDS011;49531;-34.520;150.798;2023-03-01T06:11:35;1.52;;;1.10;;
63394;SDS011;49531;-34.520;150.798;2023-03-01T06:14:03;2.47;;;1.27;;
63394;SDS011;49531;-34.520;150.798;2023-03-01T06:16:31;3.15;;;1.05;;
63394;SDS011;49531;-34.520;150.798;2023-03-01T06:18:58;2.72;;;1.15;;
63394;SDS011;49531;-34.520;150.798;2023-03-01T06:21:26;2.90;;;1.00;;
63394;SDS011;49531;-34.520;150.798;2023-03-01T06:23:53;2.55;;;1.10;;
63394;SDS011;49531;-34.520;150.798;2023-03-01T06:26:20;2.95;;;1.10;;
63394;SDS011;49531;-34.520;150.798;2023-03-01T06:28:47;2.10;;;1.13;;
63394;SDS011;49531;-34.520;150.798;2023-03-01T06:31:14;2.65;;;1.10;;
63394;SDS011;49531;-34.520;150.798;2023-03-01T06:33:42;3.72;;;1.10;;
63394;SDS011;49531;-34.520;150.798;2023-03-01T06:36:10;1.65;;;1.10;;
63394;SDS011;49531;-34.520;150.798;2023-03-01T06:38:37;2.40;;;1.17;;
63394;SDS011;49531;-34.520;150.798;2023-03-01T06:41:06;2.40;;;1.20;;
63394;SDS011;49531;-34.520;150.798;2023-03-01T06:43:33;2.88;;;1.15;;
63394;SDS011;49531;-34.520;150.798;2023-03-01T06:46:03;2.30;;;1.20;;
63394;SDS011;49531;-34.520;150.798;2023-03-01T06:48:32;2.15;;;1.38;;
63394;SDS011;49531;-34.520;150.798;2023-03-01T06:51:00;3.42;;;1.10;;
63394;SDS011;49531;-34.520;150.798;2023-03-01T06:53:28;4.97;;;1.17;;
63394;SDS011;49531;-34.520;150.798;2023-03-01T06:55:56;1.88;;;1.00;;
63394;SDS011;49531;-34.520;150.798;2023-03-01T06:58:25;1.88;;;1.10;;
63394;SDS011;49531;-34.520;150.798;2023-03-01T07:00:53;2.00;;;1.08;;
63394;SDS011;49531;-34.520;150.798;2023-03-01T07:03:20;2.40;;;1.17;;
63394;SDS011;49531;-34.520;150.798;2023-03-01T07:05:48;5.10;;;1.10;;
63394;SDS011;49531;-34.520;150.798;2023-03-01T07:08:18;3.13;;;1.20;;
63394;SDS011;49531;-34.520;150.798;2023-03-01T07:10:45;4.13;;;1.38;;
63394;SDS011;49531;-34.520;150.798;2023-03-01T07:13:12;1.50;;;1.13;;
63394;SDS011;49531;-34.520;150.798;2023-03-01T07:15:39;4.32;;;1.20;;
63394;SDS011;49531;-34.520;150.798;2023-03-01T07:18:07;3.33;;;1.20;;
63394;SDS011;49531;-34.520;150.798;2023-03-01T07:20:34;4.07;;;1.30;;
63394;SDS011;49531;-34.520;150.798;2023-03-01T07:23:01;3.67;;;1.08;;
63394;SDS011;49531;-34.520;150.798;2023-03-01T07:25:28;2.60;;;1.20;;
63394;SDS011;49531;-34.520;150.798;2023-03-01T07:27:55;2.78;;;1.33;;
63394;SDS011;49531;-34.520;150.798;2023-03-01T07:30:23;3.35;;;1.30;;
63394;SDS011;49531;-34.520;150.798;2023-03-01T07:32:55;3.58;;;1.58;;
63394;SDS011;49531;-34.520;150.798;2023-03-01T07:35:23;4.25;;;1.60;;
63394;SDS011;49531;-34.520;150.798;2023-03-01T07:37:52;4.50;;;1.70;;
63394;SDS011;49531;-34.520;150.798;2023-03-01T07:40:20;6.13;;;1.90;;
63394;SDS011;49531;-34.520;150.798;2023-03-01T07:42:47;5.55;;;2.10;;
63394;SDS011;49531;-34.520;150.798;2023-03-01T07:45:14;6.35;;;2.25;;
63394;SDS011;49531;-34.520;150.798;2023-03-01T07:47:41;5.53;;;2.17;;
63394;SDS011;49531;-34.520;150.798;2023-03-01T07:50:08;8.18;;;2.13;;
63394;SDS011;49531;-34.520;150.798;2023-03-01T07:52:36;8.02;;;2.15;;
63394;SDS011;49531;-34.520;150.798;2023-03-01T07:55:04;5.20;;;2.30;;
63394;SDS011;49531;-34.520;150.798;2023-03-01T07:57:31;5.57;;;2.22;;
63394;SDS011;49531;-34.520;150.798;2023-03-01T07:59:58;7.30;;;2.55;;
63394;SDS011;49531;-34.520;150.798;2023-03-01T08:02:25;6.03;;;2.42;;
63394;SDS011;49531;-34.520;150.798;2023-03-01T08:04:52;4.97;;;2.40;;
63394;SDS011;49531;-34.520;150.798;2023-03-01T08:07:19;5.55;;;2.20;;
63394;SDS011;49531;-34.520;150.798;2023-03-01T08:09:46;5.88;;;2.33;;
63394;SDS011;49531;-34.520;150.798;2023-03-01T08:12:13;6.07;;;2.60;;
63394;SDS011;49531;-34.520;150.798;2023-03-01T08:14:42;4.60;;;2.28;;
63394;SDS011;49531;-34.520;150.798;2023-03-01T08:17:09;6.38;;;2.50;;
63394;SDS011;49531;-34.520;150.798;2023-03-01T08:19:36;5.20;;;2.00;;
63394;SDS011;49531;-34.520;150.798;2023-03-01T08:22:03;5.28;;;2.00;;
63394;SDS011;49531;-34.520;150.798;2023-03-01T08:24:31;7.10;;;2.05;;
63394;SDS011;49531;-34.520;150.798;2023-03-01T08:26:58;5.03;;;1.95;;
63394;SDS011;49531;-34.520;150.798;2023-03-01T08:29:25;6.63;;;1.88;;
63394;SDS011;49531;-34.520;150.798;2023-03-01T08:31:52;5.10;;;1.60;;
63394;SDS011;49531;-34.520;150.798;2023-03-01T08:34:20;6.03;;;1.90;;
63394;SDS011;49531;-34.520;150.798;2023-03-01T08:36:47;7.22;;;2.00;;
63394;SDS011;49531;-34.520;150.798;2023-03-01T08:39:16;4.57;;;1.70;;
63394;SDS011;49531;-34.520;150.798;2023-03-01T08:41:45;5.20;;;2.00;;
63394;SDS011;49531;-34.520;150.798;2023-03-01T08:44:13;5.80;;;1.83;;
63394;SDS011;49531;-34.520;150.798;2023-03-01T08:46:42;3.92;;;1.60;;
63394;SDS011;49531;-34.520;150.798;2023-03-01T08:49:12;5.97;;;1.80;;
63394;SDS011;49531;-34.520;150.798;2023-03-01T08:51:40;6.90;;;1.90;;
63394;SDS011;49531;-34.520;150.798;2023-03-01T08:54:10;3.78;;;1.92;;
63394;SDS011;49531;-34.520;150.798;2023-03-01T08:56:40;5.75;;;1.95;;
63394;SDS011;49531;-34.520;150.798;2023-03-01T08:59:08;4.57;;;2.00;;
63394;SDS011;49531;-34.520;150.798;2023-03-01T09:01:37;6.78;;;2.05;;
63394;SDS011;49531;-34.520;150.798;2023-03-01T09:04:05;4.13;;;1.50;;
63394;SDS011;49531;-34.520;150.798;2023-03-01T09:06:33;5.65;;;1.75;;
63394;SDS011;49531;-34.520;150.798;2023-03-01T09:09:00;3.25;;;1.65;;
63394;SDS011;49531;-34.520;150.798;2023-03-01T09:11:30;5.68;;;1.80;;
63394;SDS011;49531;-34.520;150.798;2023-03-01T09:13:57;5.25;;;1.80;;
63394;SDS011;49531;-34.520;150.798;2023-03-01T09:16:24;3.78;;;1.60;;
63394;SDS011;49531;-34.520;150.798;2023-03-01T09:18:52;3.88;;;1.80;;
63394;SDS011;49531;-34.520;150.798;2023-03-01T09:21:21;4.72;;;1.85;;
63394;SDS011;49531;-34.520;150.798;2023-03-01T09:23:49;4.88;;;1.80;;
63394;SDS011;49531;-34.520;150.798;2023-03-01T09:26:18;4.72;;;1.85;;
63394;SDS011;49531;-34.520;150.798;2023-03-01T09:28:47;5.28;;;1.73;;
63394;SDS011;49531;-34.520;150.798;2023-03-01T09:31:16;3.80;;;1.70;;
63394;SDS011;49531;-34.520;150.798;2023-03-01T09:33:45;5.07;;;1.70;;
63394;SDS011;49531;-34.520;150.798;2023-03-01T09:36:16;5.15;;;1.70;;
63394;SDS011;49531;-34.520;150.798;2023-03-01T09:38:46;6.30;;;1.70;;
63394;SDS011;49531;-34.520;150.798;2023-03-01T09:41:32;4.40;;;2.00;;
63394;SDS011;49531;-34.520;150.798;2023-03-01T09:44:21;5.07;;;1.80;;
63394;SDS011;49531;-34.520;150.798;2023-03-01T09:47:04;8.02;;;2.30;;
63394;SDS011;49531;-34.520;150.798;2023-03-01T09:49:36;4.00;;;1.75;;
63394;SDS011;49531;-34.520;150.798;2023-03-01T09:54:53;4.97;;;1.85;;
63394;SDS011;49531;-34.520;150.798;2023-03-01T09:57:40;4.05;;;1.83;;
63394;SDS011;49531;-34.520;150.798;2023-03-01T10:00:18;5.10;;;1.80;;
63394;SDS011;49531;-34.520;150.798;2023-03-01T10:03:14;7.13;;;1.98;;
63394;SDS011;49531;-34.520;150.798;2023-03-01T10:05:56;6.43;;;1.90;;
63394;SDS011;49531;-34.520;150.798;2023-03-01T10:08:38;3.60;;;1.75;;
63394;SDS011;49531;-34.520;150.798;2023-03-01T10:11:17;3.78;;;1.92;;
63394;SDS011;49531;-34.520;150.798;2023-03-01T10:13:52;5.00;;;1.83;;
63394;SDS011;49531;-34.520;150.798;2023-03-01T10:16:46;4.75;;;1.73;;
63394;SDS011;49531;-34.520;150.798;2023-03-01T10:19:23;6.75;;;2.25;;
63394;SDS011;49531;-34.520;150.798;2023-03-01T10:22:03;6.55;;;2.00;;
63394;SDS011;49531;-34.520;150.798;2023-03-01T10:24:47;4.88;;;1.80;;
63394;SDS011;49531;-34.520;150.798;2023-03-01T10:27:19;6.65;;;2.10;;
63394;SDS011;49531;-34.520;150.798;2023-03-01T10:29:54;4.22;;;1.95;;
63394;SDS011;49531;-34.520;150.798;2023-03-01T10:32:36;3.97;;;1.67;;
63394;SDS011;49531;-34.520;150.798;2023-03-01T10:35:25;3.63;;;1.80;;
63394;SDS011;49531;-34.520;150.798;2023-03-01T10:38:04;6.47;;;1.88;;
63394;SDS011;49531;-34.520;150.798;2023-03-01T10:40:33;4.60;;;2.10;;
63394;SDS011;49531;-34.520;150.798;2023-03-01T10:43:03;5.20;;;2.10;;
63394;SDS011;49531;-34.520;150.798;2023-03-01T10:45:33;5.00;;;1.85;;
63394;SDS011;49531;-34.520;150.798;2023-03-01T10:48:05;6.53;;;2.15;;
63394;SDS011;49531;-34.520;150.798;2023-03-01T10:50:43;3.72;;;1.75;;
63394;SDS011;49531;-34.520;150.798;2023-03-01T10:53:22;4.97;;;2.15;;
63394;SDS011;49531;-34.520;150.798;2023-03-01T10:55:56;5.50;;;1.95;;
63394;SDS011;49531;-34.520;150.798;2023-03-01T10:58:28;5.18;;;2.20;;
63394;SDS011;49531;-34.520;150.798;2023-03-01T11:00:58;5.97;;;1.88;;
63394;SDS011;49531;-34.520;150.798;2023-03-01T11:03:29;3.85;;;1.90;;
63394;SDS011;49531;-34.520;150.798;2023-03-01T11:06:01;3.42;;;1.85;;
63394;SDS011;49531;-34.520;150.798;2023-03-01T11:08:48;4.57;;;1.70;;
63394;SDS011;49531;-34.520;150.798;2023-03-01T11:11:19;6.60;;;2.15;;
63394;SDS011;49531;-34.520;150.798;2023-03-01T11:13:55;3.20;;;1.88;;
63394;SDS011;49531;-34.520;150.798;2023-03-01T11:16:33;4.68;;;2.00;;
63394;SDS011;49531;-34.520;150.798;2023-03-01T11:19:13;5.00;;;2.13;;
63394;SDS011;49531;-34.520;150.798;2023-03-01T11:21:57;7.65;;;2.13;;
63394;SDS011;49531;-34.520;150.798;2023-03-01T11:24:40;5.25;;;2.22;;
63394;SDS011;49531;-34.520;150.798;2023-03-01T11:27:15;3.50;;;1.92;;
63394;SDS011;49531;-34.520;150.798;2023-03-01T11:29:59;3.80;;;1.90;;
63394;SDS011;49531;-34.520;150.798;2023-03-01T11:32:38;3.95;;;1.90;;
63394;SDS011;49531;-34.520;150.798;2023-03-01T11:35:15;4.32;;;1.90;;
63394;SDS011;49531;-34.520;150.798;2023-03-01T11:37:54;4.72;;;2.00;;
63394;SDS011;49531;-34.520;150.798;2023-03-01T11:40:32;6.97;;;2.10;;
63394;SDS011;49531;-34.520;150.798;2023-03-01T11:43:19;3.78;;;1.70;;
63394;SDS011;49531;-34.520;150.798;2023-03-01T11:45:57;6.35;;;1.80;;
63394;SDS011;49531;-34.520;150.798;2023-03-01T11:48:52;6.75;;;1.90;;
63394;SDS011;49531;-34.520;150.798;2023-03-01T11:51:52;6.13;;;1.80;;
63394;SDS011;49531;-34.520;150.798;2023-03-01T11:57:38;5.80;;;1.90;;
63394;SDS011;49531;-34.520;150.798;2023-03-01T12:00:15;4.53;;;2.00;;
63394;SDS011;49531;-34.520;150.798;2023-03-01T12:06:18;3.83;;;2.00;;
63394;SDS011;49531;-34.520;150.798;2023-03-01T12:09:00;4.75;;;1.77;;
63394;SDS011;49531;-34.520;150.798;2023-03-01T12:11:49;2.58;;;1.65;;
63394;SDS011;49531;-34.520;150.798;2023-03-01T12:14:33;3.88;;;1.80;;
63394;SDS011;49531;-34.520;150.798;2023-03-01T12:17:20;3.50;;;1.90;;
63394;SDS011;49531;-34.520;150.798;2023-03-01T12:23:18;3.83;;;1.80;;
63394;SDS011;49531;-34.520;150.798;2023-03-01T12:26:10;4.60;;;1.98;;
63394;SDS011;49531;-34.520;150.798;2023-03-01T12:28:57;2.92;;;1.60;;
63394;SDS011;49531;-34.520;150.798;2023-03-01T12:31:41;5.00;;;1.80;;
63394;SDS011;49531;-34.520;150.798;2023-03-01T12:34:28;4.35;;;1.70;;
63394;SDS011;49531;-34.520;150.798;2023-03-01T12:37:25;3.42;;;1.60;;
63394;SDS011;49531;-34.520;150.798;2023-03-01T12:43:06;3.35;;;1.92;;
63394;SDS011;49531;-34.520;150.798;2023-03-01T12:48:40;2.47;;;1.70;;
63394;SDS011;49531;-34.520;150.798;2023-03-01T12:51:15;2.50;;;1.52;;
63394;SDS011;49531;-34.520;150.798;2023-03-01T12:53:49;2.95;;;1.60;;
63394;SDS011;49531;-34.520;150.798;2023-03-01T12:56:20;3.95;;;1.70;;
63394;SDS011;49531;-34.520;150.798;2023-03-01T12:59:02;5.32;;;1.67;;
63394;SDS011;49531;-34.520;150.798;2023-03-01T13:01:44;3.05;;;1.60;;
63394;SDS011;49531;-34.520;150.798;2023-03-01T13:04:29;3.72;;;1.80;;
63394;SDS011;49531;-34.520;150.798;2023-03-01T13:07:13;3.90;;;1.80;;
63394;SDS011;49531;-34.520;150.798;2023-03-01T13:10:03;3.78;;;1.60;;
63394;SDS011;49531;-34.520;150.798;2023-03-01T13:12:57;6.80;;;1.80;;
63394;SDS011;49531;-34.520;150.798;2023-03-01T13:15:31;3.95;;;1.77;;
63394;SDS011;49531;-34.520;150.798;2023-03-01T13:18:01;3.13;;;1.60;;
63394;SDS011;49531;-34.520;150.798;2023-03-01T13:20:32;3.10;;;1.50;;
63394;SDS011;49531;-34.520;150.798;2023-03-01T13:23:13;3.22;;;1.70;;
63394;SDS011;49531;-34.520;150.798;2023-03-01T13:26:03;3.58;;;1.80;;
63394;SDS011;49531;-34.520;150.798;2023-03-01T13:39:39;2.47;;;1.60;;
63394;SDS011;49531;-34.520;150.798;2023-03-01T13:44:57;3.75;;;1.70;;
63394;SDS011;49531;-34.520;150.798;2023-03-01T13:47:24;3.20;;;1.70;;
63394;SDS011;49531;-34.520;150.798;2023-03-01T13:49:56;2.67;;;1.70;;
63394;SDS011;49531;-34.520;150.798;2023-03-01T13:54:59;6.25;;;2.00;;
63394;SDS011;49531;-34.520;150.798;2023-03-01T13:57:32;3.92;;;1.80;;
63394;SDS011;49531;-34.520;150.798;2023-03-01T14:00:02;4.50;;;1.77;;
63394;SDS011;49531;-34.520;150.798;2023-03-01T14:02:30;3.97;;;1.90;;
63394;SDS011;49531;-34.520;150.798;2023-03-01T14:04:59;4.15;;;1.90;;
63394;SDS011;49531;-34.520;150.798;2023-03-01T14:07:27;3.78;;;1.90;;
63394;SDS011;49531;-34.520;150.798;2023-03-01T14:09:56;3.25;;;1.90;;
63394;SDS011;49531;-34.520;150.798;2023-03-01T14:12:32;3.50;;;1.77;;
63394;SDS011;49531;-34.520;150.798;2023-03-01T14:15:27;4.03;;;1.88;;
63394;SDS011;49531;-34.520;150.798;2023-03-01T14:18:03;4.45;;;1.75;;
63394;SDS011;49531;-34.520;150.798;2023-03-01T14:20:47;3.33;;;1.67;;
63394;SDS011;49531;-34.520;150.798;2023-03-01T14:23:18;4.90;;;1.80;;
63394;SDS011;49531;-34.520;150.798;2023-03-01T14:25:49;4.80;;;1.80;;
63394;SDS011;49531;-34.520;150.798;2023-03-01T14:28:20;5.63;;;1.80;;
63394;SDS011;49531;-34.520;150.798;2023-03-01T14:30:53;4.32;;;2.00;;
63394;SDS011;49531;-34.520;150.798;2023-03-01T14:33:25;3.40;;;1.70;;
63394;SDS011;49531;-34.520;150.798;2023-03-01T14:36:00;3.40;;;1.58;;
63394;SDS011;49531;-34.520;150.798;2023-03-01T14:38:32;3.58;;;1.73;;
63394;SDS011;49531;-34.520;150.798;2023-03-01T14:41:09;3.80;;;1.98;;
63394;SDS011;49531;-34.520;150.798;2023-03-01T14:43:44;4.40;;;1.77;;
63394;SDS011;49531;-34.520;150.798;2023-03-01T14:46:18;4.22;;;1.90;;
63394;SDS011;49531;-34.520;150.798;2023-03-01T14:48:51;3.58;;;2.00;;
63394;SDS011;49531;-34.520;150.798;2023-03-01T14:51:20;4.15;;;1.80;;
63394;SDS011;49531;-34.520;150.798;2023-03-01T14:53:47;4.10;;;1.90;;
63394;SDS011;49531;-34.520;150.798;2023-03-01T14:56:16;3.42;;;1.60;;
63394;SDS011;49531;-34.520;150.798;2023-03-01T14:58:44;2.70;;;1.60;;
63394;SDS011;49531;-34.520;150.798;2023-03-01T15:01:16;2.97;;;1.60;;
63394;SDS011;49531;-34.520;150.798;2023-03-01T15:03:45;4.75;;;1.88;;
63394;SDS011;49531;-34.520;150.798;2023-03-01T15:06:15;3.30;;;1.80;;
63394;SDS011;49531;-34.520;150.798;2023-03-01T15:08:47;2.97;;;1.77;;
63394;SDS011;49531;-34.520;150.798;2023-03-01T15:11:23;2.97;;;1.65;;
63394;SDS011;49531;-34.520;150.798;2023-03-01T15:13:53;4.97;;;1.80;;